PWSweather.com
Personal Weather Stations
Station Observations
IROGLAN40
AalgaardNO 4330

AalgaardNO 4330

Lat: 58.773, Lon: 5.846

Elevation: 326

Station Type: Davis Vanatge Pro2

www.mavahome.com

High Low Average
Temperature 40.6°F4.8°C 31.6°F-0.2°C 35.5°F1.9°C
Dew Point 36.5°F2.5°C 30.0°F-1.1°C 32.7°F0.4°C
Winds 5.8 mph 9.3 kmh Calm Calm 1.0 mph W1.6 kmh W
Wind Gusts 8.1 mph13.0 kmh -- 2.0 mph3.2 kmh
Humidity 97% 82% 90%
Pressure 29.37 in994.6 mb 29.28 in991.5 mb -
Precipitation 0.35 in8.9 mm - -
Hour Temp Dew Point Humidity Winds Wind Gusts Pressure Precip Precip Rate Daily Precip Total
12:00 AM 33.6°F0.9°C 30.4°F-0.9°C 88% Calm Calm -- 29.34 in993.6 mb - 0.00 in0.0 mm 0.00 in0.0 mm
12:10 AM 33.4°F0.8°C 30.5°F-0.8°C 89% Calm Calm -- 29.34 in993.6 mb - 0.00 in0.0 mm 0.00 in0.0 mm
12:20 AM 33.7°F0.9°C 30.8°F-0.7°C 89% 1.2 mph W1.9 kmh W 3.5 mph5.6 kmh 29.33 in993.2 mb - 0.00 in0.0 mm 0.00 in0.0 mm
12:30 AM 33.9°F1.1°C 31.0°F-0.6°C 89% 1.2 mph W1.9 kmh W 3.5 mph5.6 kmh 29.32 in992.9 mb - 0.00 in0.0 mm 0.00 in0.0 mm
12:40 AM 34.0°F1.1°C 31.1°F-0.5°C 89% Calm Calm -- 29.32 in992.9 mb - 0.00 in0.0 mm 0.00 in0.0 mm
12:50 AM 34.0°F1.1°C 31.4°F-0.3°C 90% Calm Calm -- 29.32 in992.9 mb - 0.00 in0.0 mm 0.00 in0.0 mm
01:00 AM 34.0°F1.1°C 31.3°F-0.4°C 90% Calm Calm -- 29.31 in992.6 mb - 0.00 in0.0 mm 0.00 in0.0 mm
01:10 AM 34.2°F1.2°C 31.6°F-0.2°C 90% Calm Calm -- 29.31 in992.6 mb - 0.00 in0.0 mm 0.00 in0.0 mm
01:20 AM 34.3°F1.3°C 31.7°F-0.2°C 90% Calm Calm -- 29.30 in992.2 mb - 0.01 in0.3 mm 0.01 in0.3 mm
01:30 AM 34.4°F1.3°C 31.8°F-0.1°C 90% 1.2 mph W1.9 kmh W 2.3 mph3.7 kmh 29.30 in992.2 mb - 0.00 in0.0 mm 0.01 in0.3 mm
01:40 AM 34.4°F1.3°C 31.8°F-0.1°C 90% 1.2 mph W1.9 kmh W 2.3 mph3.7 kmh 29.29 in991.9 mb - 0.01 in0.3 mm 0.02 in0.5 mm
01:50 AM 34.5°F1.4°C 31.9°F-0.1°C 90% 1.2 mph W1.9 kmh W 2.3 mph3.7 kmh 29.29 in991.9 mb - 0.00 in0.0 mm 0.02 in0.5 mm
02:00 AM 34.6°F1.4°C 32.0°F0.0°C 90% Calm Calm -- 29.28 in991.5 mb - 0.02 in0.5 mm 0.04 in1.0 mm
02:10 AM 34.7°F1.5°C 32.1°F0.1°C 90% Calm Calm 1.2 mph1.9 kmh 29.28 in991.5 mb - 0.02 in0.5 mm 0.06 in1.5 mm
02:20 AM 34.8°F1.6°C 32.2°F0.1°C 90% Calm Calm 1.2 mph1.9 kmh 29.28 in991.5 mb - 0.02 in0.5 mm 0.07 in1.8 mm
02:30 AM 34.7°F1.5°C 32.1°F0.1°C 90% 1.2 mph W1.9 kmh W 1.2 mph1.9 kmh 29.28 in991.5 mb - 0.01 in0.3 mm 0.08 in2.0 mm
02:40 AM 34.6°F1.4°C 32.0°F0.0°C 90% Calm Calm 2.3 mph3.7 kmh 29.29 in991.9 mb - 0.01 in0.3 mm 0.09 in2.3 mm
02:50 AM 34.5°F1.4°C 31.9°F-0.1°C 90% Calm Calm -- 29.29 in991.9 mb - 0.00 in0.0 mm 0.09 in2.3 mm
03:00 AM 34.4°F1.3°C 32.0°F0.0°C 91% Calm Calm -- 29.29 in991.9 mb - 0.01 in0.3 mm 0.09 in2.3 mm
03:10 AM 34.2°F1.2°C 31.6°F-0.2°C 90% Calm Calm -- 29.29 in991.9 mb - 0.00 in0.0 mm 0.09 in2.3 mm
03:20 AM 34.0°F1.1°C 31.6°F-0.2°C 91% Calm Calm -- 29.30 in992.2 mb - 0.01 in0.3 mm 0.10 in2.5 mm
03:30 AM 33.7°F0.9°C 31.3°F-0.4°C 91% Calm Calm -- 29.30 in992.2 mb - 0.00 in0.0 mm 0.10 in2.5 mm
03:40 AM 33.4°F0.8°C 31.1°F-0.5°C 91% 2.3 mph W3.7 kmh W 3.5 mph5.6 kmh 29.30 in992.2 mb - 0.00 in0.0 mm 0.10 in2.5 mm
03:50 AM 33.3°F0.7°C 31.0°F-0.6°C 91% Calm Calm 1.2 mph1.9 kmh 29.30 in992.2 mb - 0.00 in0.0 mm 0.10 in2.5 mm
04:00 AM 33.2°F0.7°C 30.9°F-0.6°C 91% Calm Calm -- 29.30 in992.2 mb - 0.00 in0.0 mm 0.10 in2.5 mm
04:10 AM 33.1°F0.6°C 30.8°F-0.7°C 91% Calm Calm -- 29.30 in992.2 mb - 0.00 in0.0 mm 0.10 in2.5 mm
04:20 AM 33.0°F0.6°C 30.7°F-0.7°C 91% Calm Calm -- 29.30 in992.2 mb - 0.00 in0.0 mm 0.10 in2.5 mm
04:30 AM 33.0°F0.6°C 30.7°F-0.7°C 91% Calm Calm -- 29.30 in992.2 mb - 0.00 in0.0 mm 0.10 in2.5 mm
04:40 AM 32.9°F0.5°C 30.6°F-0.8°C 91% Calm Calm -- 29.30 in992.2 mb - 0.00 in0.0 mm 0.10 in2.5 mm
04:50 AM 32.9°F0.5°C 30.6°F-0.8°C 91% Calm Calm -- 29.30 in992.2 mb - 0.01 in0.3 mm 0.11 in2.8 mm
05:00 AM 32.8°F0.4°C 30.5°F-0.8°C 91% Calm Calm -- 29.30 in992.2 mb - 0.00 in0.0 mm 0.11 in2.8 mm
05:10 AM 32.8°F0.4°C 30.5°F-0.8°C 91% Calm Calm -- 29.30 in992.2 mb - 0.00 in0.0 mm 0.11 in2.8 mm
05:20 AM 32.8°F0.4°C 30.5°F-0.8°C 91% Calm Calm -- 29.30 in992.2 mb - 0.00 in0.0 mm 0.11 in2.8 mm
05:30 AM 32.8°F0.4°C 30.7°F-0.7°C 92% Calm Calm -- 29.30 in992.2 mb - 0.00 in0.0 mm 0.11 in2.8 mm
05:40 AM 32.9°F0.5°C 30.8°F-0.7°C 92% Calm Calm -- 29.30 in992.2 mb - 0.00 in0.0 mm 0.11 in2.8 mm
05:50 AM 32.9°F0.5°C 30.8°F-0.7°C 92% Calm Calm -- 29.30 in992.2 mb - 0.00 in0.0 mm 0.11 in2.8 mm
06:00 AM 32.9°F0.5°C 30.8°F-0.7°C 92% Calm Calm -- 29.30 in992.2 mb - 0.00 in0.0 mm 0.11 in2.8 mm
06:10 AM 32.9°F0.5°C 30.8°F-0.7°C 92% Calm Calm -- 29.31 in992.6 mb - 0.00 in0.0 mm 0.11 in2.8 mm
06:20 AM 32.9°F0.5°C 30.8°F-0.7°C 92% Calm Calm -- 29.31 in992.6 mb - 0.00 in0.0 mm 0.11 in2.8 mm
06:30 AM 32.8°F0.4°C 30.7°F-0.7°C 92% Calm Calm -- 29.30 in992.2 mb - 0.00 in0.0 mm 0.11 in2.8 mm
06:40 AM 32.8°F0.4°C 30.8°F-0.7°C 92% Calm Calm -- 29.30 in992.2 mb - 0.00 in0.0 mm 0.11 in2.8 mm
06:50 AM 32.7°F0.4°C 30.6°F-0.8°C 92% Calm Calm -- 29.30 in992.2 mb - 0.01 in0.3 mm 0.12 in3.0 mm
07:00 AM 32.7°F0.4°C 30.6°F-0.8°C 92% Calm Calm -- 29.30 in992.2 mb - 0.01 in0.3 mm 0.12 in3.0 mm
07:10 AM 32.8°F0.4°C 30.7°F-0.7°C 92% Calm Calm -- 29.30 in992.2 mb - 0.00 in0.0 mm 0.12 in3.0 mm
07:20 AM 32.8°F0.4°C 30.7°F-0.7°C 92% Calm Calm -- 29.30 in992.2 mb - 0.00 in0.0 mm 0.12 in3.0 mm
07:30 AM 32.7°F0.4°C 30.6°F-0.8°C 92% Calm Calm -- 29.30 in992.2 mb - 0.00 in0.0 mm 0.12 in3.0 mm
07:40 AM 32.8°F0.4°C 30.7°F-0.7°C 92% Calm Calm -- 29.30 in992.2 mb - 0.00 in0.0 mm 0.12 in3.0 mm
07:50 AM 32.9°F0.5°C 30.8°F-0.7°C 92% Calm Calm -- 29.30 in992.2 mb - 0.00 in0.0 mm 0.12 in3.0 mm
08:00 AM 32.9°F0.5°C 30.8°F-0.7°C 92% Calm Calm -- 29.30 in992.2 mb - 0.00 in0.0 mm 0.12 in3.0 mm
08:10 AM 33.0°F0.6°C 30.9°F-0.6°C 92% Calm Calm -- 29.30 in992.2 mb - 0.00 in0.0 mm 0.12 in3.0 mm
08:20 AM 33.1°F0.6°C 31.0°F-0.6°C 92% Calm Calm -- 29.30 in992.2 mb - 0.00 in0.0 mm 0.12 in3.0 mm
08:30 AM 33.1°F0.6°C 31.0°F-0.6°C 92% Calm Calm -- 29.30 in992.2 mb - 0.00 in0.0 mm 0.12 in3.0 mm
08:40 AM 33.2°F0.7°C 31.1°F-0.5°C 92% Calm Calm -- 29.30 in992.2 mb - 0.00 in0.0 mm 0.12 in3.0 mm
08:50 AM 33.4°F0.8°C 31.3°F-0.4°C 92% Calm Calm -- 29.30 in992.2 mb - 0.00 in0.0 mm 0.12 in3.0 mm
09:00 AM 33.6°F0.9°C 31.5°F-0.3°C 92% Calm Calm -- 29.31 in992.6 mb - 0.01 in0.3 mm 0.13 in3.3 mm
09:10 AM 33.8°F1.0°C 31.7°F-0.2°C 92% Calm Calm -- 29.31 in992.6 mb - 0.00 in0.0 mm 0.13 in3.3 mm
09:20 AM 33.8°F1.0°C 31.7°F-0.2°C 92% Calm Calm -- 29.31 in992.6 mb - 0.01 in0.3 mm 0.13 in3.3 mm
09:30 AM 34.1°F1.2°C 32.0°F0.0°C 92% Calm Calm -- 29.31 in992.6 mb - 0.00 in0.0 mm 0.13 in3.3 mm
09:40 AM 34.7°F1.5°C 32.6°F0.3°C 92% Calm Calm -- 29.32 in992.9 mb - 0.01 in0.3 mm 0.14 in3.6 mm
09:50 AM 34.8°F1.6°C 32.7°F0.4°C 92% Calm Calm -- 29.32 in992.9 mb - 0.01 in0.3 mm 0.15 in3.8 mm
10:00 AM 35.1°F1.7°C 33.0°F0.6°C 92% Calm Calm -- 29.32 in992.9 mb - 0.01 in0.3 mm 0.16 in4.1 mm
10:10 AM 35.1°F1.7°C 33.0°F0.6°C 92% Calm Calm -- 29.32 in992.9 mb - 0.01 in0.3 mm 0.17 in4.3 mm
10:40 AM 35.7°F2.1°C 33.6°F0.9°C 92% Calm Calm -- 29.32 in992.9 mb - 0.01 in0.3 mm 0.18 in4.6 mm
10:50 AM 36.4°F2.4°C 34.3°F1.3°C 92% Calm Calm -- 29.32 in992.9 mb - 0.01 in0.3 mm 0.19 in4.8 mm
11:00 AM 36.9°F2.7°C 34.8°F1.6°C 92% Calm Calm -- 29.32 in992.9 mb - 0.02 in0.5 mm 0.21 in5.3 mm
11:10 AM 37.3°F2.9°C 35.2°F1.8°C 92% Calm Calm -- 29.33 in993.2 mb - 0.01 in0.3 mm 0.21 in5.3 mm
11:20 AM 37.7°F3.2°C 35.6°F2.0°C 92% Calm Calm 3.5 mph5.6 kmh 29.33 in993.2 mb - 0.02 in0.5 mm 0.23 in5.8 mm
11:30 AM 37.9°F3.3°C 35.5°F1.9°C 91% Calm Calm -- 29.33 in993.2 mb - 0.02 in0.5 mm 0.24 in6.1 mm
11:40 AM 37.9°F3.3°C 35.5°F1.9°C 91% 2.3 mph W3.7 kmh W 3.5 mph5.6 kmh 29.33 in993.2 mb - 0.02 in0.5 mm 0.25 in6.4 mm
11:50 AM 39.0°F3.9°C 36.3°F2.4°C 90% 2.3 mph W3.7 kmh W 3.5 mph5.6 kmh 29.32 in992.9 mb - 0.01 in0.3 mm 0.26 in6.6 mm
12:00 PM 39.3°F4.1°C 36.3°F2.4°C 89% 2.3 mph W3.7 kmh W 3.5 mph5.6 kmh 29.33 in993.2 mb - 0.02 in0.5 mm 0.28 in7.1 mm
12:10 PM 39.5°F4.2°C 36.5°F2.5°C 89% Calm Calm -- 29.33 in993.2 mb - 0.01 in0.3 mm 0.28 in7.1 mm
12:20 PM 39.8°F4.3°C 36.5°F2.5°C 88% 2.3 mph SW3.7 kmh SW 3.5 mph5.6 kmh 29.32 in992.9 mb - 0.01 in0.3 mm 0.29 in7.4 mm
12:30 PM 39.5°F4.2°C 36.2°F2.3°C 88% 3.5 mph W5.6 kmh W 3.5 mph5.6 kmh 29.33 in993.2 mb - 0.01 in0.3 mm 0.30 in7.6 mm
12:40 PM 39.5°F4.2°C 36.2°F2.3°C 88% 4.6 mph WNW7.4 kmh WNW 5.8 mph9.3 kmh 29.33 in993.2 mb - 0.00 in0.0 mm 0.30 in7.6 mm
12:50 PM 39.3°F4.1°C 36.0°F2.2°C 88% 4.6 mph WNW7.4 kmh WNW 6.9 mph11.1 kmh 29.33 in993.2 mb - 0.01 in0.3 mm 0.31 in7.9 mm
01:00 PM 38.8°F3.8°C 35.3°F1.8°C 87% 3.5 mph W5.6 kmh W 5.8 mph9.3 kmh 29.33 in993.2 mb - 0.01 in0.3 mm 0.32 in8.1 mm
01:10 PM 38.6°F3.7°C 35.0°F1.7°C 87% 4.6 mph WNW7.4 kmh WNW 5.8 mph9.3 kmh 29.33 in993.2 mb - 0.00 in0.0 mm 0.32 in8.1 mm
01:20 PM 38.8°F3.8°C 35.6°F2.0°C 88% 4.6 mph W7.4 kmh W 5.8 mph9.3 kmh 29.33 in993.2 mb - 0.01 in0.3 mm 0.32 in8.1 mm
01:30 PM 38.9°F3.8°C 35.6°F2.0°C 88% 4.6 mph W7.4 kmh W 6.9 mph11.1 kmh 29.33 in993.2 mb - 0.00 in0.0 mm 0.32 in8.1 mm
01:40 PM 38.7°F3.7°C 35.5°F1.9°C 88% 2.3 mph W3.7 kmh W 3.5 mph5.6 kmh 29.34 in993.6 mb - 0.01 in0.3 mm 0.33 in8.4 mm
01:50 PM 39.0°F3.9°C 36.0°F2.2°C 89% 3.5 mph W5.6 kmh W 4.6 mph7.4 kmh 29.33 in993.2 mb - 0.00 in0.0 mm 0.33 in8.4 mm
02:00 PM 38.7°F3.7°C 35.4°F1.9°C 88% 2.3 mph WNW3.7 kmh WNW 5.8 mph9.3 kmh 29.33 in993.2 mb - 0.00 in0.0 mm 0.33 in8.4 mm
02:10 PM 39.2°F4.0°C 35.7°F2.1°C 87% 3.5 mph WNW5.6 kmh WNW 4.6 mph7.4 kmh 29.33 in993.2 mb - 0.01 in0.3 mm 0.34 in8.6 mm
02:20 PM 40.3°F4.6°C 36.5°F2.5°C 86% 4.6 mph NW7.4 kmh NW 5.8 mph9.3 kmh 29.33 in993.2 mb - 0.00 in0.0 mm 0.34 in8.6 mm
02:30 PM 40.3°F4.6°C 35.8°F2.1°C 84% 4.6 mph WNW7.4 kmh WNW 6.9 mph11.1 kmh 29.33 in993.2 mb - 0.00 in0.0 mm 0.34 in8.6 mm
02:40 PM 40.6°F4.8°C 35.8°F2.1°C 83% 5.8 mph WNW9.3 kmh WNW 8.1 mph13.0 kmh 29.33 in993.2 mb - 0.01 in0.3 mm 0.35 in8.9 mm
02:50 PM 40.2°F4.6°C 35.7°F2.1°C 84% 4.6 mph W7.4 kmh W 5.8 mph9.3 kmh 29.33 in993.2 mb - 0.00 in0.0 mm 0.35 in8.9 mm
03:00 PM 39.9°F4.4°C 35.5°F1.9°C 84% 4.6 mph WNW7.4 kmh WNW 8.1 mph13.0 kmh 29.33 in993.2 mb - 0.00 in0.0 mm 0.35 in8.9 mm
03:10 PM 39.8°F4.3°C 35.4°F1.9°C 84% 4.6 mph WNW7.4 kmh WNW 6.9 mph11.1 kmh 29.33 in993.2 mb - 0.00 in0.0 mm 0.35 in8.9 mm
03:20 PM 39.7°F4.3°C 35.2°F1.8°C 84% 4.6 mph WNW7.4 kmh WNW 5.8 mph9.3 kmh 29.33 in993.2 mb - 0.00 in0.0 mm 0.35 in8.9 mm
03:30 PM 39.3°F4.1°C 34.9°F1.6°C 84% 5.8 mph WNW9.3 kmh WNW 6.9 mph11.1 kmh 29.33 in993.2 mb - 0.00 in0.0 mm 0.35 in8.9 mm
03:40 PM 39.0°F3.9°C 34.6°F1.4°C 84% 4.6 mph WNW7.4 kmh WNW 4.6 mph7.4 kmh 29.33 in993.2 mb - 0.00 in0.0 mm 0.35 in8.9 mm
03:50 PM 38.9°F3.8°C 34.8°F1.6°C 85% 2.3 mph W3.7 kmh W 5.8 mph9.3 kmh 29.33 in993.2 mb - 0.00 in0.0 mm 0.35 in8.9 mm
04:00 PM 38.9°F3.8°C 34.8°F1.6°C 85% 2.3 mph W3.7 kmh W 5.8 mph9.3 kmh 29.34 in993.6 mb - 0.00 in0.0 mm 0.35 in8.9 mm
04:10 PM 39.4°F4.1°C 35.3°F1.8°C 85% 3.5 mph W5.6 kmh W 4.6 mph7.4 kmh 29.33 in993.2 mb - 0.00 in0.0 mm 0.35 in8.9 mm
04:20 PM 39.5°F4.2°C 35.4°F1.9°C 85% 4.6 mph W7.4 kmh W 5.8 mph9.3 kmh 29.33 in993.2 mb - 0.00 in0.0 mm 0.35 in8.9 mm
04:30 PM 38.9°F3.8°C 34.8°F1.6°C 85% 3.5 mph WNW5.6 kmh WNW 8.1 mph13.0 kmh 29.34 in993.6 mb - 0.00 in0.0 mm 0.35 in8.9 mm
04:40 PM 38.9°F3.8°C 34.5°F1.4°C 84% 2.3 mph W3.7 kmh W 3.5 mph5.6 kmh 29.33 in993.2 mb - 0.00 in0.0 mm 0.35 in8.9 mm
04:50 PM 38.8°F3.8°C 34.1°F1.2°C 83% 3.5 mph WNW5.6 kmh WNW 5.8 mph9.3 kmh 29.33 in993.2 mb - 0.00 in0.0 mm 0.35 in8.9 mm
05:00 PM 39.1°F3.9°C 34.4°F1.3°C 83% 4.6 mph WNW7.4 kmh WNW 5.8 mph9.3 kmh 29.33 in993.2 mb - 0.00 in0.0 mm 0.35 in8.9 mm
05:10 PM 39.0°F3.9°C 34.0°F1.1°C 82% 4.6 mph WNW7.4 kmh WNW 6.9 mph11.1 kmh 29.33 in993.2 mb - 0.00 in0.0 mm 0.35 in8.9 mm
05:20 PM 38.9°F3.8°C 33.8°F1.0°C 82% 4.6 mph WNW7.4 kmh WNW 5.8 mph9.3 kmh 29.34 in993.6 mb - 0.00 in0.0 mm 0.35 in8.9 mm
05:30 PM 38.6°F3.7°C 33.9°F1.1°C 83% 3.5 mph W5.6 kmh W 3.5 mph5.6 kmh 29.34 in993.6 mb - 0.00 in0.0 mm 0.35 in8.9 mm
05:40 PM 38.4°F3.6°C 33.7°F0.9°C 83% 2.3 mph W3.7 kmh W 3.5 mph5.6 kmh 29.34 in993.6 mb - 0.00 in0.0 mm 0.35 in8.9 mm
05:50 PM 37.9°F3.3°C 33.2°F0.7°C 83% 3.5 mph W5.6 kmh W 3.5 mph5.6 kmh 29.34 in993.6 mb - 0.00 in0.0 mm 0.35 in8.9 mm
06:00 PM 37.7°F3.2°C 33.3°F0.7°C 84% 2.3 mph W3.7 kmh W 3.5 mph5.6 kmh 29.34 in993.6 mb - 0.00 in0.0 mm 0.35 in8.9 mm
06:10 PM 37.4°F3.0°C 33.3°F0.7°C 85% 3.5 mph W5.6 kmh W 3.5 mph5.6 kmh 29.34 in993.6 mb - 0.00 in0.0 mm 0.35 in8.9 mm
06:20 PM 37.1°F2.8°C 33.6°F0.9°C 87% 3.5 mph W5.6 kmh W 3.5 mph5.6 kmh 29.34 in993.6 mb - 0.00 in0.0 mm 0.35 in8.9 mm
06:30 PM 36.7°F2.6°C 33.2°F0.7°C 87% 2.3 mph W3.7 kmh W 3.5 mph5.6 kmh 29.35 in993.9 mb - 0.00 in0.0 mm 0.35 in8.9 mm
06:40 PM 36.5°F2.5°C 33.2°F0.7°C 88% 1.2 mph W1.9 kmh W 2.3 mph3.7 kmh 29.35 in993.9 mb - 0.00 in0.0 mm 0.35 in8.9 mm
06:50 PM 36.2°F2.3°C 33.0°F0.6°C 88% Calm Calm -- 29.35 in993.9 mb - 0.00 in0.0 mm 0.35 in8.9 mm
07:00 PM 36.0°F2.2°C 32.8°F0.4°C 88% 2.3 mph W3.7 kmh W 3.5 mph5.6 kmh 29.35 in993.9 mb - 0.00 in0.0 mm 0.35 in8.9 mm
07:10 PM 36.0°F2.2°C 33.1°F0.6°C 89% 1.2 mph W1.9 kmh W 3.5 mph5.6 kmh 29.35 in993.9 mb - 0.00 in0.0 mm 0.35 in8.9 mm
07:20 PM 35.7°F2.1°C 32.8°F0.4°C 89% Calm Calm -- 29.35 in993.9 mb - 0.00 in0.0 mm 0.35 in8.9 mm
07:30 PM 35.3°F1.8°C 32.4°F0.2°C 89% Calm Calm -- 29.35 in993.9 mb - 0.00 in0.0 mm 0.35 in8.9 mm
07:40 PM 35.2°F1.8°C 32.6°F0.3°C 90% Calm Calm -- 29.35 in993.9 mb - 0.00 in0.0 mm 0.35 in8.9 mm
07:50 PM 35.2°F1.8°C 32.6°F0.3°C 90% Calm Calm -- 29.35 in993.9 mb - 0.00 in0.0 mm 0.35 in8.9 mm
08:00 PM 35.2°F1.8°C 32.5°F0.3°C 90% 1.2 mph W1.9 kmh W 2.3 mph3.7 kmh 29.35 in993.9 mb - 0.00 in0.0 mm 0.35 in8.9 mm
08:10 PM 35.2°F1.8°C 32.6°F0.3°C 90% Calm Calm 1.2 mph1.9 kmh 29.35 in993.9 mb - 0.00 in0.0 mm 0.35 in8.9 mm
08:20 PM 35.1°F1.7°C 32.7°F0.4°C 91% Calm Calm -- 29.35 in993.9 mb - 0.00 in0.0 mm 0.35 in8.9 mm
08:30 PM 35.0°F1.7°C 32.6°F0.3°C 91% Calm Calm -- 29.35 in993.9 mb - 0.00 in0.0 mm 0.35 in8.9 mm
08:40 PM 35.0°F1.7°C 32.7°F0.4°C 91% Calm Calm 2.3 mph3.7 kmh 29.35 in993.9 mb - 0.00 in0.0 mm 0.35 in8.9 mm
08:50 PM 35.1°F1.7°C 32.7°F0.4°C 91% 2.3 mph W3.7 kmh W 3.5 mph5.6 kmh 29.35 in993.9 mb - 0.00 in0.0 mm 0.35 in8.9 mm
09:00 PM 35.1°F1.7°C 32.7°F0.4°C 91% Calm Calm -- 29.35 in993.9 mb - 0.00 in0.0 mm 0.35 in8.9 mm
09:10 PM 35.0°F1.7°C 32.6°F0.3°C 91% Calm Calm -- 29.36 in994.2 mb - 0.00 in0.0 mm 0.35 in8.9 mm
09:20 PM 34.9°F1.6°C 32.5°F0.3°C 91% Calm Calm -- 29.36 in994.2 mb - 0.00 in0.0 mm 0.35 in8.9 mm
09:30 PM 34.7°F1.5°C 32.3°F0.2°C 91% Calm Calm -- 29.36 in994.2 mb - 0.00 in0.0 mm 0.35 in8.9 mm
09:40 PM 34.6°F1.4°C 32.2°F0.1°C 91% Calm Calm -- 29.36 in994.2 mb - 0.00 in0.0 mm 0.35 in8.9 mm
09:50 PM 34.4°F1.3°C 32.0°F0.0°C 91% Calm Calm -- 29.36 in994.2 mb - 0.00 in0.0 mm 0.35 in8.9 mm
10:00 PM 34.4°F1.3°C 32.0°F0.0°C 91% Calm Calm -- 29.36 in994.2 mb - 0.00 in0.0 mm 0.35 in8.9 mm
10:10 PM 34.0°F1.1°C 31.7°F-0.2°C 91% Calm Calm -- 29.36 in994.2 mb - 0.00 in0.0 mm 0.35 in8.9 mm
10:20 PM 33.9°F1.1°C 31.6°F-0.2°C 91% Calm Calm -- 29.36 in994.2 mb - 0.00 in0.0 mm 0.35 in8.9 mm
10:30 PM 33.7°F0.9°C 31.3°F-0.4°C 91% Calm Calm -- 29.37 in994.6 mb - 0.00 in0.0 mm 0.35 in8.9 mm
10:40 PM 33.1°F0.6°C 30.7°F-0.7°C 91% Calm Calm -- 29.36 in994.2 mb - 0.00 in0.0 mm 0.35 in8.9 mm
10:50 PM 32.7°F0.4°C 30.3°F-0.9°C 91% Calm Calm -- 29.36 in994.2 mb - 0.00 in0.0 mm 0.35 in8.9 mm
11:00 PM 32.3°F0.2°C 30.0°F-1.1°C 91% Calm Calm -- 29.36 in994.2 mb - 0.00 in0.0 mm 0.35 in8.9 mm
11:10 PM 31.6°F-0.2°C 30.8°F-0.7°C 97% Calm Calm -- 29.36 in994.2 mb - 0.00 in0.0 mm 0.35 in8.9 mm
11:20 PM 31.7°F-0.2°C 30.9°F-0.6°C 97% Calm Calm -- 29.37 in994.6 mb - 0.00 in0.0 mm 0.35 in8.9 mm
11:30 PM 31.7°F-0.2°C 30.9°F-0.6°C 97% Calm Calm -- 29.37 in994.6 mb - 0.00 in0.0 mm 0.35 in8.9 mm
11:40 PM 31.7°F-0.2°C 30.9°F-0.6°C 97% Calm Calm -- 29.37 in994.6 mb - 0.00 in0.0 mm 0.35 in8.9 mm
11:50 PM 31.6°F-0.2°C 30.8°F-0.7°C 97% Calm Calm -- 29.37 in994.6 mb - 0.00 in0.0 mm 0.35 in8.9 mm